Time;durP1;ratioP1;P1;durP2;ratioP2;P2;SDS_P1;SDS_P2;PMS_P1;PMS_P2;Temp;Humidity;BMP_temperature;BMP_pressure;BME280_temperature;BME280_humidity;BME280_pressure;Samples;Min_cycle;Max_cycle;Signal;HPM_P1;HPM_P2
2022/02/07 00:01:53;;;;;;;3.97;1.33;;;4.60;99.90;;;;;;5122334;28;20262;-71
2022/02/07 00:04:45;;;;;;;5.60;1.37;;;4.70;99.90;;;;;;5123107;27;20198;-71
2022/02/07 00:07:33;;;;;;;3.10;1.50;;;4.60;99.90;;;;;;5124891;27;20221;-71
2022/02/07 00:10:20;;;;;;;5.50;1.23;;;4.70;99.90;;;;;;5123549;28;20601;-71
2022/02/07 00:13:08;;;;;;;4.93;1.70;;;4.60;99.90;;;;;;5124309;27;20720;-71
2022/02/07 00:15:56;;;;;;;3.23;1.30;;;4.60;99.90;;;;;;5120072;28;20246;-71
2022/02/07 00:18:44;;;;;;;7.90;1.60;;;4.60;99.90;;;;;;5112836;28;20293;-72
2022/02/07 00:21:33;;;;;;;3.53;1.40;;;4.60;99.90;;;;;;5123761;28;20667;-71
2022/02/07 00:24:21;;;;;;;3.00;1.40;;;4.60;99.90;;;;;;5120142;28;20213;-72
2022/02/07 00:27:08;;;;;;;4.23;1.70;;;4.60;99.90;;;;;;5121519;28;20666;-71
2022/02/07 00:29:56;;;;;;;5.37;2.00;;;4.50;99.90;;;;;;5120347;28;20207;-72
2022/02/07 00:32:44;;;;;;;4.87;1.83;;;4.50;99.90;;;;;;5116268;27;20202;-71
2022/02/07 00:35:31;;;;;;;3.37;1.80;;;4.50;99.90;;;;;;5114536;28;20195;-71
2022/02/07 00:38:22;;;;;;;5.20;2.03;;;4.50;99.90;;;;;;5120911;28;20214;-71
2022/02/07 00:41:17;;;;;;;5.73;2.40;;;4.50;99.90;;;;;;5121605;28;20682;-71
2022/02/07 00:44:12;;;;;;;3.77;1.80;;;4.50;99.90;;;;;;5118493;27;20669;-72
2022/02/07 00:47:05;;;;;;;2.60;1.30;;;4.50;99.90;;;;;;5125046;27;20707;-71
2022/02/07 00:49:54;;;;;;;4.63;1.93;;;4.50;99.90;;;;;;5128732;27;20226;-71
2022/02/07 00:52:41;;;;;;;5.60;1.83;;;4.40;99.90;;;;;;5123448;27;20214;-71
2022/02/07 00:55:30;;;;;;;2.87;1.43;;;4.30;99.90;;;;;;5129091;27;20198;-71
2022/02/07 00:58:18;;;;;;;2.63;1.70;;;4.30;99.90;;;;;;5130508;27;20663;-71
2022/02/07 01:01:06;;;;;;;4.23;1.80;;;4.20;99.90;;;;;;5130952;27;20205;-71
2022/02/07 01:03:54;;;;;;;3.50;2.00;;;4.20;99.90;;;;;;5117243;27;20210;-72
2022/02/07 01:06:41;;;;;;;3.07;1.90;;;4.20;99.90;;;;;;5131282;27;20202;-71
2022/02/07 01:09:38;;;;;;;5.07;2.70;;;4.10;99.90;;;;;;5126277;27;20665;-71
2022/02/07 01:12:42;;;;;;;5.07;2.20;;;4.00;99.90;;;;;;5125846;27;20191;-71
2022/02/07 01:15:38;;;;;;;4.50;2.37;;;4.00;99.90;;;;;;5124109;27;20295;-72
2022/02/07 01:52:55;;;;;;;4.17;2.37;;;3.50;99.90;;;;;;5091691;27;20680;-73
2022/02/07 01:55:45;;;;;;;3.73;2.53;;;3.50;99.90;;;;;;5121813;27;20194;-73
2022/02/07 01:58:34;;;;;;;5.50;2.73;;;3.60;99.90;;;;;;5117497;27;20233;-73
2022/02/07 02:01:23;;;;;;;4.63;2.40;;;3.60;99.90;;;;;;5125001;27;20206;-73
2022/02/07 02:04:10;;;;;;;4.47;2.30;;;3.50;99.90;;;;;;5124113;27;20547;-73
2022/02/07 02:06:58;;;;;;;3.70;2.67;;;3.60;99.90;;;;;;5126976;27;20225;-73
2022/02/07 02:09:46;;;;;;;5.57;2.97;;;3.50;99.90;;;;;;5127889;27;20641;-73
2022/02/07 02:12:39;;;;;;;4.97;2.60;;;3.50;99.90;;;;;;5120709;27;20201;-72
2022/02/07 02:15:38;;;;;;;3.70;2.33;;;3.50;99.90;;;;;;5120927;27;20222;-73
2022/02/07 02:37:14;;;;;;;4.83;2.57;;;3.30;99.90;;;;;;5123242;27;20193;-72
2022/02/07 02:46:18;;;;;;;4.27;2.60;;;3.30;99.90;;;;;;5119799;27;20609;-72
2022/02/07 02:49:06;;;;;;;2.83;1.80;;;3.30;99.90;;;;;;5126055;27;20198;-72
2022/02/07 02:51:54;;;;;;;3.93;2.53;;;3.30;99.90;;;;;;5123920;27;20580;-72
2022/02/07 02:54:41;;;;;;;3.43;2.57;;;3.30;99.90;;;;;;5124260;27;20206;-72
2022/02/07 02:57:30;;;;;;;5.63;3.13;;;3.30;99.90;;;;;;5118889;27;20195;-72
2022/02/07 03:00:18;;;;;;;4.90;3.10;;;3.30;99.90;;;;;;5121313;27;20226;-72
2022/02/07 03:03:05;;;;;;;5.37;2.83;;;3.30;99.90;;;;;;5119137;27;20233;-71
2022/02/07 03:05:53;;;;;;;4.30;3.00;;;3.40;99.90;;;;;;5122559;27;20205;-72
2022/02/07 03:08:40;;;;;;;5.90;3.13;;;3.40;99.90;;;;;;5119177;27;20279;-73
2022/02/07 03:11:29;;;;;;;3.97;2.90;;;3.30;99.90;;;;;;5123204;27;20225;-72
2022/02/07 03:14:22;;;;;;;4.90;2.93;;;3.30;99.90;;;;;;5122390;27;20600;-72
2022/02/07 03:17:10;;;;;;;3.40;2.67;;;3.30;99.90;;;;;;5120913;27;20201;-72
2022/02/07 03:19:57;;;;;;;6.30;3.47;;;3.40;99.90;;;;;;5118604;27;20807;-72
2022/02/07 03:22:45;;;;;;;6.23;3.90;;;3.30;99.90;;;;;;5123626;27;20202;-72
2022/02/07 03:25:33;;;;;;;6.67;3.80;;;3.40;99.90;;;;;;5120330;27;20578;-72
2022/02/07 03:28:21;;;;;;;5.17;3.70;;;3.40;99.90;;;;;;5125632;27;20224;-72
2022/02/07 03:31:10;;;;;;;5.90;3.33;;;3.40;99.90;;;;;;5117285;27;20206;-71
2022/02/07 03:33:58;;;;;;;5.37;3.60;;;3.40;99.90;;;;;;5125005;27;20199;-72
2022/02/07 03:36:46;;;;;;;6.57;3.80;;;3.50;99.90;;;;;;5115641;27;20203;-72
2022/02/07 03:39:33;;;;;;;5.70;3.83;;;3.50;99.90;;;;;;5121746;27;20225;-72
2022/02/07 03:42:21;;;;;;;6.27;3.47;;;3.50;99.90;;;;;;5115211;27;20210;-72
2022/02/07 03:45:09;;;;;;;4.10;2.70;;;3.50;99.90;;;;;;5118420;27;22105;-71
2022/02/07 03:47:58;;;;;;;5.83;3.67;;;3.50;99.90;;;;;;5122172;28;20206;-72
2022/02/07 03:50:46;;;;;;;5.37;3.40;;;3.50;99.90;;;;;;5121847;28;20620;-72
2022/02/07 03:53:33;;;;;;;5.70;3.33;;;3.50;99.90;;;;;;5121424;28;20227;-72
2022/02/07 03:56:21;;;;;;;3.97;2.93;;;3.50;99.90;;;;;;5119307;28;20237;-71
2022/02/07 03:59:08;;;;;;;5.43;3.40;;;3.50;99.90;;;;;;5116287;28;20237;-72
2022/02/07 04:01:56;;;;;;;5.63;3.53;;;3.50;99.90;;;;;;5117993;27;20213;-72
2022/02/07 04:04:51;;;;;;;6.13;3.10;;;3.50;99.90;;;;;;5121644;28;20209;-72
2022/02/07 04:07:39;;;;;;;7.97;3.33;;;3.50;99.90;;;;;;5121883;28;20195;-72
2022/02/07 04:10:30;;;;;;;7.17;3.87;;;3.60;99.90;;;;;;5124136;28;20214;-72
2022/02/07 04:13:25;;;;;;;8.37;3.73;;;3.60;99.90;;;;;;5123792;28;20680;-71
2022/02/07 04:16:13;;;;;;;8.60;4.60;;;3.60;99.90;;;;;;5102350;28;20670;-71
2022/02/07 04:19:05;;;;;;;10.47;4.50;;;3.70;99.90;;;;;;5095605;28;20567;-72
2022/02/07 04:21:55;;;;;;;9.83;5.17;;;3.70;99.90;;;;;;5097021;28;20252;-73
2022/02/07 04:24:42;;;;;;;10.23;4.97;;;3.70;99.90;;;;;;5108182;28;20195;-72
2022/02/07 04:27:30;;;;;;;10.57;4.43;;;3.70;99.90;;;;;;5101513;27;20199;-71
2022/02/07 04:30:17;;;;;;;9.07;5.10;;;3.70;99.90;;;;;;5098895;28;20206;-72
2022/02/07 04:33:05;;;;;;;13.17;6.43;;;3.70;99.90;;;;;;5101574;28;20207;-72
2022/02/07 04:35:53;;;;;;;19.27;8.37;;;3.70;99.90;;;;;;5106807;28;20211;-72
2022/02/07 04:38:42;;;;;;;11.83;6.07;;;3.70;99.90;;;;;;5106736;28;20199;-72
2022/02/07 04:41:29;;;;;;;19.20;7.63;;;3.70;99.90;;;;;;5101818;28;20662;-71
2022/02/07 04:44:23;;;;;;;15.63;8.23;;;3.60;99.90;;;;;;5097426;28;20206;-72
2022/02/07 04:47:19;;;;;;;17.60;8.47;;;3.60;99.90;;;;;;5102687;27;20211;-72
2022/02/07 04:50:24;;;;;;;8.93;4.73;;;3.70;99.90;;;;;;5101726;28;20239;-72
2022/02/07 04:53:18;;;;;;;21.53;6.83;;;3.70;99.90;;;;;;5104277;28;20214;-71
2022/02/07 04:56:20;;;;;;;9.07;4.33;;;3.70;99.90;;;;;;5104385;28;20202;-72
2022/02/07 04:59:11;;;;;;;6.63;3.90;;;3.60;99.90;;;;;;5100793;28;20195;-72
2022/02/07 05:02:08;;;;;;;14.83;6.53;;;3.60;99.90;;;;;;5102238;28;20202;-72
2022/02/07 05:05:07;;;;;;;7.90;4.53;;;3.60;99.90;;;;;;5102811;28;20598;-72
2022/02/07 05:14:07;;;;;;;10.17;5.70;;;3.60;99.90;;;;;;5096832;27;20574;-73
2022/02/07 05:16:56;;;;;;;12.50;6.60;;;3.60;99.90;;;;;;5125801;27;20667;-72
2022/02/07 05:19:44;;;;;;;12.27;7.63;;;3.60;99.90;;;;;;5127490;27;20772;-72
2022/02/07 05:22:31;;;;;;;11.00;5.47;;;3.60;99.90;;;;;;5119278;27;20198;-73
2022/02/07 05:25:19;;;;;;;9.07;5.20;;;3.50;99.90;;;;;;5126521;27;20203;-72
2022/02/07 05:28:06;;;;;;;7.20;4.53;;;3.50;99.90;;;;;;5125792;27;20205;-72
2022/02/07 05:30:56;;;;;;;10.67;4.50;;;3.50;99.90;;;;;;5131364;27;20285;-72
2022/02/07 05:33:43;;;;;;;9.37;4.83;;;3.50;99.90;;;;;;5120162;27;20259;-72
2022/02/07 05:36:31;;;;;;;8.83;5.20;;;3.50;99.90;;;;;;5126181;27;20187;-72
2022/02/07 05:39:19;;;;;;;9.70;5.67;;;3.50;99.90;;;;;;5124191;27;20198;-73
2022/02/07 05:42:07;;;;;;;9.70;5.53;;;3.50;99.90;;;;;;5120756;27;20672;-72
2022/02/07 05:44:55;;;;;;;10.53;5.43;;;3.50;99.90;;;;;;5120082;27;20706;-73
2022/02/07 05:47:44;;;;;;;11.23;6.00;;;3.50;99.90;;;;;;5121283;27;20222;-72
2022/02/07 05:50:32;;;;;;;8.13;4.70;;;3.50;99.90;;;;;;5119272;27;20219;-72
2022/02/07 05:53:19;;;;;;;6.13;2.50;;;3.50;99.90;;;;;;5124773;27;20202;-73
2022/02/07 05:56:07;;;;;;;6.97;3.03;;;3.50;99.90;;;;;;5125614;27;20845;-71
2022/02/07 05:58:55;;;;;;;7.57;4.37;;;3.50;99.90;;;;;;5123832;27;20203;-71
2022/02/07 06:01:43;;;;;;;8.67;4.23;;;3.40;99.90;;;;;;5128977;27;20206;-72
2022/02/07 06:04:32;;;;;;;3.73;2.30;;;3.30;99.90;;;;;;5124943;27;20213;-71
2022/02/07 06:07:19;;;;;;;7.27;3.17;;;3.30;99.90;;;;;;5126479;27;20225;-74
2022/02/07 06:10:07;;;;;;;4.23;2.40;;;3.00;99.90;;;;;;5118499;27;20221;-71
2022/02/07 06:12:55;;;;;;;2.67;1.70;;;2.40;99.90;;;;;;5117493;27;20289;-72
2022/02/07 06:15:43;;;;;;;1.57;0.97;;;2.10;99.90;;;;;;5119159;27;20693;-72
2022/02/07 06:18:31;;;;;;;2.50;1.20;;;1.70;99.90;;;;;;5118954;27;20209;-70
2022/02/07 06:21:20;;;;;;;3.60;1.60;;;1.60;99.90;;;;;;5121733;27;20259;-71
2022/02/07 06:24:08;;;;;;;4.40;1.97;;;1.50;99.90;;;;;;5122463;27;20199;-71
2022/02/07 06:26:56;;;;;;;3.70;1.93;;;1.40;99.90;;;;;;5125065;27;20662;-71
2022/02/07 06:29:44;;;;;;;4.87;2.60;;;1.30;99.90;;;;;;5126945;27;20235;-71
2022/02/07 06:32:31;;;;;;;5.17;3.10;;;1.30;99.90;;;;;;5123069;27;20660;-71
2022/02/07 06:35:31;;;;;;;4.87;2.10;;;1.20;99.90;;;;;;5122119;27;20237;-71
2022/02/07 06:38:20;;;;;;;4.70;2.80;;;1.20;99.90;;;;;;5121164;27;20642;-71
2022/02/07 06:41:08;;;;;;;4.80;2.77;;;1.10;99.90;;;;;;5119036;27;20215;-72
2022/02/07 06:44:33;;;;;;;4.13;2.67;;;1.10;99.90;;;;;;5120384;27;20326;-72
2022/02/07 06:47:45;;;;;;;8.10;3.50;;;1.10;99.90;;;;;;5117165;27;20398;-72
2022/02/07 06:50:32;;;;;;;5.40;3.50;;;1.10;99.90;;;;;;5119835;27;20274;-72
2022/02/07 06:53:21;;;;;;;5.67;3.97;;;1.10;99.90;;;;;;5114634;27;20281;-71
2022/02/07 06:56:09;;;;;;;8.27;3.93;;;1.10;99.90;;;;;;5125642;27;20209;-71
2022/02/07 06:58:57;;;;;;;6.93;3.70;;;1.10;99.90;;;;;;5127901;27;20202;-71
2022/02/07 07:01:45;;;;;;;8.10;4.47;;;1.10;99.90;;;;;;5120416;27;20305;-71
2022/02/07 07:04:33;;;;;;;7.70;3.53;;;1.10;99.90;;;;;;5122997;27;20243;-71
2022/02/07 07:07:21;;;;;;;7.97;4.47;;;1.10;99.90;;;;;;5118388;27;20205;-71
2022/02/07 07:10:10;;;;;;;11.30;6.70;;;1.10;99.90;;;;;;5126141;27;20223;-72
2022/02/07 07:13:04;;;;;;;10.37;5.37;;;1.10;99.90;;;;;;5126531;27;20198;-71
2022/02/07 07:15:58;;;;;;;10.97;6.83;;;1.10;99.90;;;;;;5122389;27;20249;-71
2022/02/07 07:18:46;;;;;;;13.17;6.90;;;1.10;99.90;;;;;;5124268;27;20658;-70
2022/02/07 07:21:33;;;;;;;15.27;7.90;;;1.10;99.90;;;;;;5120640;27;20225;-71
2022/02/07 07:24:21;;;;;;;11.23;6.47;;;1.20;99.90;;;;;;5124892;27;20768;-70
2022/02/07 07:27:12;;;;;;;15.50;8.63;;;1.20;99.90;;;;;;5124135;27;20277;-70
2022/02/07 07:30:00;;;;;;;10.40;5.87;;;1.30;99.90;;;;;;5116321;27;20191;-71
2022/02/07 07:32:48;;;;;;;11.30;6.77;;;1.30;99.90;;;;;;5124121;27;20194;-72
2022/02/07 07:35:35;;;;;;;15.17;8.20;;;1.30;99.90;;;;;;5122957;27;20206;-73
2022/02/07 07:38:23;;;;;;;15.27;8.83;;;1.30;99.90;;;;;;5125764;27;20273;-72
2022/02/07 07:41:11;;;;;;;17.13;8.53;;;1.30;99.90;;;;;;5125576;27;20421;-71
2022/02/07 07:44:00;;;;;;;17.80;9.57;;;1.30;99.90;;;;;;5123319;27;20194;-71
2022/02/07 07:46:53;;;;;;;12.70;7.03;;;1.40;99.90;;;;;;5121724;27;20214;-72
2022/02/07 07:49:46;;;;;;;12.63;7.10;;;1.40;99.90;;;;;;5116139;28;20654;-71
2022/02/07 07:52:47;;;;;;;11.20;6.83;;;1.40;99.90;;;;;;5120064;28;20729;-72
2022/02/07 08:01:54;;;;;;;12.17;5.53;;;1.40;99.90;;;;;;5124134;27;20734;-71
2022/02/07 08:04:44;;;;;;;9.10;4.50;;;1.40;99.90;;;;;;5126587;27;20202;-71
2022/02/07 08:07:36;;;;;;;9.73;3.90;;;1.40;99.90;;;;;;5125203;27;20217;-72
2022/02/07 08:10:42;;;;;;;10.83;4.83;;;1.40;99.90;;;;;;5123115;27;20288;-71
2022/02/07 08:13:31;;;;;;;8.10;3.73;;;1.50;99.90;;;;;;5121415;27;20199;-71
2022/02/07 08:16:19;;;;;;;13.07;4.90;;;1.50;99.90;;;;;;5122052;27;20202;-71
2022/02/07 08:19:08;;;;;;;8.70;4.30;;;1.60;99.90;;;;;;5124936;27;20250;-71
2022/02/07 08:21:56;;;;;;;11.83;4.73;;;1.60;99.90;;;;;;5124567;27;20218;-71
2022/02/07 08:24:44;;;;;;;14.40;4.77;;;1.80;99.90;;;;;;5124377;27;20198;-71
2022/02/07 08:27:32;;;;;;;6.10;3.30;;;1.90;99.90;;;;;;5123328;27;20218;-72
2022/02/07 08:30:20;;;;;;;11.80;4.30;;;2.00;99.90;;;;;;5124137;27;20197;-71
2022/02/07 08:33:07;;;;;;;8.63;3.60;;;2.20;99.90;;;;;;5126967;27;20251;-72
2022/02/07 08:35:56;;;;;;;8.43;3.23;;;2.20;99.90;;;;;;5126442;27;20213;-71
2022/02/07 08:38:44;;;;;;;8.70;3.27;;;2.10;99.90;;;;;;5123288;27;20197;-71
2022/02/07 08:41:32;;;;;;;6.43;2.70;;;2.00;99.90;;;;;;5118438;27;20222;-71
2022/02/07 08:44:19;;;;;;;7.33;3.50;;;2.00;99.90;;;;;;5122549;27;20206;-72
2022/02/07 08:47:07;;;;;;;7.23;3.07;;;2.00;99.90;;;;;;5123023;27;20337;-71
2022/02/07 08:49:54;;;;;;;5.80;2.43;;;2.10;99.90;;;;;;5124106;27;20195;-71
2022/02/07 08:52:48;;;;;;;4.23;2.73;;;2.20;99.90;;;;;;5127578;27;20293;-71
2022/02/07 08:55:37;;;;;;;6.03;2.53;;;2.20;99.90;;;;;;5123568;27;20330;-71
2022/02/07 08:58:28;;;;;;;5.87;2.10;;;2.20;99.90;;;;;;5128218;27;20321;-71
2022/02/07 09:01:19;;;;;;;4.03;1.77;;;2.20;99.90;;;;;;5122242;27;20214;-71
2022/02/07 09:04:40;;;;;;;6.00;2.33;;;2.20;99.90;;;;;;5125100;27;20284;-71
2022/02/07 09:07:22;;;;;;;5.40;2.30;;;2.10;99.90;;;;;;5124496;27;20620;-70
2022/02/07 09:10:11;;;;;;;5.87;2.57;;;2.10;99.90;;;;;;5121054;27;20242;-71
2022/02/07 09:12:59;;;;;;;4.20;1.87;;;2.10;99.90;;;;;;5125023;27;20199;-70
2022/02/07 09:16:05;;;;;;;4.37;2.10;;;2.00;99.90;;;;;;5125542;27;20230;-71
2022/02/07 09:18:52;;;;;;;4.93;1.87;;;2.00;99.90;;;;;;5124307;27;20696;-71
2022/02/07 09:21:40;;;;;;;4.83;2.07;;;1.90;99.90;;;;;;5123726;27;20218;-72
2022/02/07 09:24:27;;;;;;;5.40;2.03;;;2.00;99.90;;;;;;5126211;27;20576;-71
2022/02/07 09:27:16;;;;;;;4.93;2.20;;;2.00;99.90;;;;;;5126159;27;20202;-70
2022/02/07 09:30:06;;;;;;;4.73;2.00;;;2.00;99.90;;;;;;5119174;27;20195;-70
2022/02/07 09:32:54;;;;;;;6.20;2.37;;;2.00;99.90;;;;;;5117653;27;20190;-70
2022/02/07 09:35:42;;;;;;;5.20;2.27;;;2.00;99.90;;;;;;5125027;27;20230;-71
2022/02/07 09:38:32;;;;;;;4.60;1.87;;;2.10;99.90;;;;;;5117228;27;20278;-72
2022/02/07 09:41:21;;;;;;;3.07;1.43;;;2.00;99.90;;;;;;5129150;27;20219;-70
2022/02/07 09:44:10;;;;;;;6.57;3.07;;;2.00;99.90;;;;;;5124902;27;20195;-71
2022/02/07 09:46:59;;;;;;;9.50;3.37;;;2.10;99.90;;;;;;5120343;27;20202;-70
2022/02/07 09:49:47;;;;;;;6.73;2.93;;;2.20;99.90;;;;;;5125264;27;20200;-70
2022/02/07 09:52:35;;;;;;;5.47;2.77;;;2.30;99.90;;;;;;5127503;27;20190;-70
2022/02/07 09:55:22;;;;;;;4.83;2.90;;;2.20;99.90;;;;;;5123217;27;20211;-70
2022/02/07 09:58:13;;;;;;;4.60;3.13;;;2.10;99.90;;;;;;5120742;27;20650;-70
2022/02/07 10:01:04;;;;;;;8.70;2.80;;;2.10;99.90;;;;;;5127001;27;20330;-70
2022/02/07 10:03:56;;;;;;;5.10;2.50;;;2.10;99.90;;;;;;5119121;27;20273;-71
2022/02/07 10:06:55;;;;;;;7.00;1.90;;;2.10;99.90;;;;;;5128670;27;20202;-70
2022/02/07 10:10:00;;;;;;;4.77;2.03;;;2.20;99.90;;;;;;5120456;27;20230;-72
2022/02/07 10:15:53;;;;;;;6.93;2.97;;;2.00;99.90;;;;;;5122254;27;20816;-70
2022/02/07 10:18:56;;;;;;;4.93;2.60;;;1.90;99.90;;;;;;5117965;27;20202;-71
2022/02/07 10:22:07;;;;;;;5.73;2.60;;;1.90;99.90;;;;;;5124403;27;20218;-70
2022/02/07 10:34:56;;;;;;;4.83;2.57;;;1.60;99.90;;;;;;5117771;27;20199;-71
2022/02/07 10:38:00;;;;;;;6.00;2.97;;;1.50;99.90;;;;;;5121741;27;20193;-70
2022/02/07 10:41:17;;;;;;;6.03;3.60;;;1.40;99.90;;;;;;5122385;27;20578;-70
2022/02/07 10:44:09;;;;;;;6.77;3.37;;;1.40;99.90;;;;;;5124113;27;20210;-70
2022/02/07 10:46:56;;;;;;;7.90;4.23;;;1.40;99.90;;;;;;5118283;27;20198;-71
2022/02/07 10:50:02;;;;;;;7.80;3.50;;;1.30;99.90;;;;;;5124410;27;20198;-70
2022/02/07 10:52:50;;;;;;;7.00;3.43;;;1.30;99.90;;;;;;5124009;27;20203;-71
2022/02/07 10:55:38;;;;;;;6.83;2.50;;;1.40;99.90;;;;;;5121764;27;20195;-71
2022/02/07 10:58:26;;;;;;;7.67;4.40;;;1.40;99.90;;;;;;5119283;27;20323;-71
2022/02/07 11:01:18;;;;;;;7.77;3.97;;;1.50;99.90;;;;;;5119426;27;20237;-71
2022/02/07 11:04:11;;;;;;;11.20;4.77;;;1.50;99.90;;;;;;5123955;27;20198;-71
2022/02/07 11:07:02;;;;;;;9.50;4.70;;;1.40;99.90;;;;;;5116622;27;20205;-71
2022/02/07 11:10:04;;;;;;;9.63;5.23;;;1.40;99.90;;;;;;5124648;27;20589;-71
2022/02/07 11:16:06;;;;;;;6.77;4.23;;;1.40;99.90;;;;;;5122826;27;20286;-71
2022/02/07 11:19:05;;;;;;;12.03;6.20;;;1.30;99.90;;;;;;5118639;27;20210;-71
2022/02/07 11:22:23;;;;;;;10.40;4.90;;;1.30;99.90;;;;;;5127158;27;20779;-71
2022/02/07 11:25:24;;;;;;;11.03;4.20;;;1.40;99.90;;;;;;5116276;27;20191;-71
2022/02/07 11:28:18;;;;;;;7.90;4.20;;;1.70;99.90;;;;;;5118241;27;20198;-71
2022/02/07 11:31:08;;;;;;;8.80;3.60;;;1.70;99.90;;;;;;5120169;27;20205;-71
2022/02/07 11:34:01;;;;;;;8.10;3.37;;;1.80;99.90;;;;;;5118896;27;20199;-71
2022/02/07 11:36:49;;;;;;;7.27;3.60;;;1.80;99.90;;;;;;5122068;27;20207;-71
2022/02/07 11:39:42;;;;;;;11.03;3.23;;;1.80;99.90;;;;;;5121756;27;20574;-71
2022/02/07 11:42:30;;;;;;;5.80;3.07;;;1.70;99.90;;;;;;5124474;27;20315;-71
2022/02/07 11:45:18;;;;;;;5.80;3.30;;;1.60;99.90;;;;;;5123112;27;20202;-71
2022/02/07 11:48:10;;;;;;;7.13;3.43;;;1.60;99.90;;;;;;5117849;27;20224;-71
2022/02/07 11:50:59;;;;;;;5.70;3.17;;;1.70;99.90;;;;;;5118595;27;20212;-71
2022/02/07 11:53:49;;;;;;;6.63;2.93;;;1.70;99.90;;;;;;5127540;27;20205;-71
2022/02/07 11:56:43;;;;;;;7.17;2.70;;;1.80;99.90;;;;;;5112992;27;20642;-70
2022/02/07 11:59:39;;;;;;;4.30;1.90;;;1.90;99.90;;;;;;5120830;27;20191;-70
2022/02/07 12:02:35;;;;;;;8.13;2.40;;;1.90;99.90;;;;;;5124787;27;20217;-71
2022/02/07 12:05:23;;;;;;;6.13;2.40;;;2.30;99.90;;;;;;5119695;27;20229;-70
2022/02/07 12:08:16;;;;;;;3.07;1.70;;;2.80;99.90;;;;;;5122147;27;20285;-71
2022/02/07 12:11:08;;;;;;;5.57;2.77;;;3.10;99.90;;;;;;5122032;27;20253;-71
2022/02/07 12:13:58;;;;;;;5.70;2.40;;;3.10;99.90;;;;;;5116977;27;20234;-71
2022/02/07 12:16:46;;;;;;;4.57;1.97;;;2.90;99.90;;;;;;5121013;27;20203;-71
2022/02/07 12:19:38;;;;;;;4.10;1.60;;;2.90;99.90;;;;;;5120225;27;20618;-70
2022/02/07 12:22:25;;;;;;;5.00;2.03;;;3.20;99.90;;;;;;5117043;27;20215;-71
2022/02/07 12:25:13;;;;;;;5.07;2.10;;;3.60;99.90;;;;;;5117868;27;20207;-71
2022/02/07 12:28:02;;;;;;;3.80;1.73;;;3.90;99.90;;;;;;5116469;27;20203;-70
2022/02/07 12:31:01;;;;;;;4.37;1.90;;;3.80;99.90;;;;;;5118315;27;20226;-71
2022/02/07 12:33:54;;;;;;;5.03;2.07;;;3.70;99.90;;;;;;5123196;27;20232;-71
2022/02/07 12:36:42;;;;;;;5.53;2.43;;;3.90;99.90;;;;;;5121036;27;20202;-71
2022/02/07 12:39:30;;;;;;;5.07;1.53;;;3.90;99.90;;;;;;5119820;27;20203;-70
2022/02/07 12:42:17;;;;;;;4.97;2.00;;;4.20;99.90;;;;;;5121948;27;20250;-71
2022/02/07 12:45:06;;;;;;;3.23;1.50;;;4.10;99.90;;;;;;5122480;27;20205;-71
2022/02/07 12:47:56;;;;;;;5.03;1.83;;;3.90;99.90;;;;;;5124407;27;20210;-71
2022/02/07 12:50:48;;;;;;;4.47;1.60;;;3.80;99.90;;;;;;5127878;27;20251;-71
2022/02/07 12:53:36;;;;;;;5.27;1.90;;;3.80;99.90;;;;;;5125280;27;20195;-71
2022/02/07 12:56:24;;;;;;;8.23;1.40;;;3.70;99.90;;;;;;5119787;27;20210;-71
2022/02/07 12:59:12;;;;;;;2.43;1.27;;;3.80;99.30;;;;;;5124157;27;20203;-71
2022/02/07 13:01:59;;;;;;;6.43;1.83;;;4.50;93.50;;;;;;5124239;27;20244;-71
2022/02/07 13:04:48;;;;;;;6.83;1.80;;;4.50;93.50;;;;;;5126053;27;20194;-71
2022/02/07 13:07:41;;;;;;;4.03;1.40;;;4.50;93.90;;;;;;5122635;27;20198;-71
2022/02/07 13:10:35;;;;;;;3.40;1.37;;;4.40;93.00;;;;;;5122526;27;20692;-70
2022/02/07 13:13:38;;;;;;;4.80;0.87;;;4.10;91.80;;;;;;5123861;27;20194;-71
2022/02/07 13:16:30;;;;;;;5.93;1.43;;;3.80;93.10;;;;;;5120551;27;20206;-71
2022/02/07 13:19:20;;;;;;;4.97;1.57;;;3.50;93.10;;;;;;5115740;27;20284;-70
2022/02/07 13:22:09;;;;;;;5.30;1.47;;;3.20;95.20;;;;;;5121331;27;20231;-71
2022/02/07 13:24:58;;;;;;;4.47;1.40;;;3.20;96.60;;;;;;5125497;27;20661;-71
2022/02/07 13:27:45;;;;;;;6.20;1.53;;;2.90;95.80;;;;;;5125892;27;20203;-71
2022/02/07 13:30:33;;;;;;;5.40;1.47;;;2.80;97.60;;;;;;5120816;27;20201;-71
2022/02/07 13:33:21;;;;;;;3.73;1.50;;;3.00;95.70;;;;;;5120938;27;20199;-71
2022/02/07 13:36:08;;;;;;;6.90;1.60;;;3.20;95.70;;;;;;5119929;27;20692;-71
2022/02/07 13:39:05;;;;;;;5.00;1.70;;;3.40;93.60;;;;;;5115976;27;20199;-70
2022/02/07 13:42:05;;;;;;;6.10;2.10;;;4.70;93.00;;;;;;5124804;27;20210;-71
2022/02/07 13:44:57;;;;;;;6.93;1.60;;;6.30;82.90;;;;;;5115907;27;20562;-71
2022/02/07 13:47:46;;;;;;;4.03;1.57;;;5.90;79.50;;;;;;5124131;27;20203;-71
2022/02/07 13:50:36;;;;;;;4.87;1.80;;;6.10;80.50;;;;;;5123120;27;20199;-71
2022/02/07 13:53:25;;;;;;;5.80;2.10;;;5.90;80.00;;;;;;5115362;27;20320;-71
2022/02/07 13:56:14;;;;;;;4.17;1.50;;;6.20;81.00;;;;;;5121887;27;20196;-71
2022/02/07 13:59:15;;;;;;;6.33;1.90;;;8.40;77.10;;;;;;5123512;27;20265;-70
2022/02/07 14:02:02;;;;;;;6.43;2.00;;;8.40;71.40;;;;;;5121650;27;20225;-71
2022/02/07 14:04:52;;;;;;;7.17;2.30;;;7.50;70.10;;;;;;5124007;27;20220;-71
2022/02/07 14:07:50;;;;;;;7.90;2.20;;;6.30;74.90;;;;;;5118052;27;20682;-71
2022/02/07 14:10:38;;;;;;;7.10;2.60;;;5.60;78.60;;;;;;5126563;27;20257;-71
2022/02/07 14:13:27;;;;;;;10.37;2.40;;;5.00;82.40;;;;;;5117653;27;20533;-70
2022/02/07 14:16:15;;;;;;;8.30;2.27;;;4.50;85.80;;;;;;5122535;27;20252;-71
2022/02/07 14:19:03;;;;;;;8.23;2.50;;;4.00;88.80;;;;;;5116671;27;20318;-71
2022/02/07 14:21:51;;;;;;;7.97;2.47;;;3.70;91.50;;;;;;5123888;27;20842;-71
2022/02/07 14:24:39;;;;;;;5.10;2.10;;;3.40;93.30;;;;;;5122758;27;20678;-71
2022/02/07 14:27:27;;;;;;;6.27;1.93;;;3.10;95.50;;;;;;5116909;27;20210;-71
2022/02/07 14:30:16;;;;;;;6.10;2.77;;;2.90;98.80;;;;;;5117192;27;20734;-70
2022/02/07 14:33:04;;;;;;;7.47;2.87;;;2.70;99.90;;;;;;5124425;27;20194;-71
2022/02/07 14:35:52;;;;;;;5.47;2.03;;;2.70;99.90;;;;;;5116926;27;20225;-71
2022/02/07 14:38:39;;;;;;;8.30;2.50;;;2.70;99.90;;;;;;5121495;27;20202;-71
2022/02/07 14:41:27;;;;;;;6.73;2.70;;;2.60;99.90;;;;;;5121617;27;20203;-71
2022/02/07 14:44:21;;;;;;;6.13;2.57;;;2.70;99.90;;;;;;5124968;27;20203;-71
2022/02/07 14:47:15;;;;;;;4.27;2.10;;;3.40;99.90;;;;;;5124846;27;20205;-71
2022/02/07 14:50:02;;;;;;;11.37;2.03;;;5.20;94.50;;;;;;5118911;27;20279;-71
2022/02/07 14:52:50;;;;;;;8.53;2.80;;;5.10;90.10;;;;;;5118893;27;20202;-71
2022/02/07 14:55:38;;;;;;;14.17;2.60;;;4.30;92.30;;;;;;5119302;27;20192;-71
2022/02/07 14:58:26;;;;;;;7.73;2.60;;;3.50;95.00;;;;;;5121939;27;20202;-71
2022/02/07 15:01:14;;;;;;;7.57;2.50;;;3.00;99.90;;;;;;5113102;27;20207;-71
2022/02/07 15:04:03;;;;;;;11.13;2.60;;;2.60;99.90;;;;;;5112919;27;20217;-71
2022/02/07 15:06:51;;;;;;;9.70;2.40;;;2.40;99.90;;;;;;5119404;27;20194;-71
2022/02/07 15:09:38;;;;;;;6.07;2.50;;;2.10;99.90;;;;;;5117359;27;20218;-71
2022/02/07 15:12:26;;;;;;;7.53;2.93;;;1.80;99.90;;;;;;5117378;27;20568;-71
2022/02/07 15:15:14;;;;;;;7.83;2.90;;;1.70;99.90;;;;;;5113070;27;20226;-71
2022/02/07 15:18:05;;;;;;;8.23;3.23;;;1.60;99.90;;;;;;5118402;27;20202;-71
2022/02/07 15:20:55;;;;;;;9.33;3.10;;;1.40;99.90;;;;;;5117688;27;20287;-70
2022/02/07 15:23:42;;;;;;;8.10;3.20;;;1.30;99.90;;;;;;5119441;27;20206;-71
2022/02/07 15:26:30;;;;;;;9.57;3.23;;;1.20;99.90;;;;;;5117097;27;20217;-71
2022/02/07 15:29:17;;;;;;;8.30;2.50;;;1.10;99.90;;;;;;5116733;27;20207;-71
2022/02/07 15:32:23;;;;;;;9.03;2.80;;;1.00;99.90;;;;;;5114808;27;20590;-71
2022/02/07 15:35:10;;;;;;;8.40;3.17;;;0.90;99.90;;;;;;5119715;27;20210;-71
2022/02/07 15:37:59;;;;;;;10.67;2.93;;;0.80;99.90;;;;;;5115186;27;20566;-71
2022/02/07 15:40:47;;;;;;;10.77;2.70;;;0.80;99.90;;;;;;5115151;27;20576;-71
2022/02/07 15:43:35;;;;;;;9.10;2.97;;;0.70;99.90;;;;;;5113651;27;20225;-71
2022/02/07 15:46:24;;;;;;;11.80;3.33;;;0.60;99.90;;;;;;5117027;27;20187;-71
2022/02/07 15:49:11;;;;;;;8.53;2.47;;;0.60;99.90;;;;;;5115528;27;20707;-71
2022/02/07 15:52:00;;;;;;;8.20;3.73;;;0.50;99.90;;;;;;5114653;27;20580;-70
2022/02/07 15:54:52;;;;;;;12.10;4.17;;;0.50;99.90;;;;;;5113770;28;20211;-71
2022/02/07 15:57:40;;;;;;;10.33;3.87;;;0.50;99.90;;;;;;5115940;28;20564;-71
2022/02/07 16:00:28;;;;;;;12.13;4.77;;;0.50;99.90;;;;;;5113008;28;20286;-71
2022/02/07 16:03:15;;;;;;;12.27;4.30;;;0.50;99.90;;;;;;5113140;28;20214;-71
2022/02/07 16:06:03;;;;;;;15.63;6.03;;;0.40;99.90;;;;;;5113193;28;20199;-72
2022/02/07 16:08:51;;;;;;;15.03;5.50;;;0.50;99.90;;;;;;5116348;28;20202;-72
2022/02/07 16:11:40;;;;;;;13.93;5.97;;;0.50;99.90;;;;;;5117034;28;20214;-71
2022/02/07 16:14:29;;;;;;;16.80;6.73;;;0.50;99.90;;;;;;5120605;27;20221;-71
2022/02/07 16:17:17;;;;;;;23.70;7.60;;;0.50;99.90;;;;;;5112848;27;20211;-71
2022/02/07 16:20:06;;;;;;;27.67;9.07;;;0.60;99.90;;;;;;5118742;27;20213;-71
2022/02/07 16:22:53;;;;;;;23.90;8.87;;;0.60;99.90;;;;;;5123839;27;20223;-71
2022/02/07 16:25:42;;;;;;;15.43;6.87;;;0.70;99.90;;;;;;5121733;27;20195;-71